createdAt,value
2023-02-14T00:00:21.269Z,17.88
2023-02-14T00:03:08.962Z,20.90
2023-02-14T00:05:36.504Z,17.42
2023-02-14T00:08:04.174Z,20.70
2023-02-14T00:10:31.577Z,14.63
2023-02-14T00:12:59.221Z,19.08
2023-02-14T00:15:26.707Z,19.98
2023-02-14T00:17:55.742Z,18.60
2023-02-14T00:20:23.325Z,21.17
2023-02-14T00:22:50.988Z,16.75
2023-02-14T00:25:18.548Z,16.10
2023-02-14T00:27:46.186Z,18.17
2023-02-14T00:30:14.291Z,14.98
2023-02-14T00:32:42.622Z,17.02
2023-02-14T00:35:10.450Z,12.38
2023-02-14T00:37:38.268Z,15.32
2023-02-14T00:40:06.347Z,15.32
2023-02-14T00:42:34.269Z,16.35
2023-02-14T00:45:01.786Z,14.75
2023-02-14T00:47:29.457Z,17.60
2023-02-14T00:49:56.809Z,15.40
2023-02-14T00:52:24.465Z,17.65
2023-02-14T00:54:52.036Z,15.00
2023-02-14T00:57:19.793Z,18.38
2023-02-14T00:59:47.120Z,17.70
2023-02-14T01:02:14.829Z,18.85
2023-02-14T01:04:42.183Z,14.23
2023-02-14T01:07:09.838Z,19.95
2023-02-14T01:09:37.261Z,16.55
2023-02-14T01:12:05.246Z,17.67
2023-02-14T01:14:32.810Z,18.60
2023-02-14T01:17:00.538Z,19.70
2023-02-14T01:19:27.904Z,18.63
2023-02-14T01:21:55.602Z,19.10
2023-02-14T01:24:23.145Z,16.65
2023-02-14T01:26:50.828Z,17.80
2023-02-14T01:29:18.245Z,16.08
2023-02-14T01:31:45.988Z,18.33
2023-02-14T01:34:13.379Z,19.70
2023-02-14T01:36:59.625Z,22.05
2023-02-14T01:39:45.574Z,17.08
2023-02-14T01:42:33.371Z,15.18
2023-02-14T01:45:08.783Z,16.23
2023-02-14T01:47:41.233Z,17.10
2023-02-14T01:50:16.065Z,20.77
2023-02-14T01:52:47.200Z,15.52
2023-02-14T01:55:16.777Z,16.15
2023-02-14T01:57:47.704Z,16.38
2023-02-14T02:00:15.515Z,13.48
2023-02-14T02:02:43.353Z,15.00
2023-02-14T02:08:32.714Z,14.98
2023-02-14T02:14:23.070Z,18.23
2023-02-14T02:16:50.822Z,14.15
2023-02-14T02:19:36.429Z,19.98
2023-02-14T02:22:24.271Z,16.75
2023-02-14T02:25:03.520Z,13.25
2023-02-14T02:28:00.363Z,15.55
2023-02-14T02:30:39.415Z,11.85
2023-02-14T02:33:10.083Z,17.92
2023-02-14T02:35:37.462Z,13.18
2023-02-14T02:38:14.178Z,11.88
2023-02-14T02:40:48.468Z,14.45
2023-02-14T02:43:34.730Z,12.40
2023-02-14T02:46:04.646Z,14.23
2023-02-14T02:48:44.739Z,13.40
2023-02-14T02:51:16.192Z,12.07
2023-02-14T02:53:48.566Z,14.10
2023-02-14T02:56:21.564Z,14.52
2023-02-14T02:58:55.547Z,12.10
2023-02-14T03:01:31.066Z,12.25
2023-02-14T03:07:33.810Z,14.73
2023-02-14T03:13:39.412Z,17.30
2023-02-14T03:16:25.650Z,16.35
2023-02-14T03:18:53.000Z,13.27
2023-02-14T03:21:23.557Z,11.73
2023-02-14T03:23:57.899Z,12.43
2023-02-14T03:26:25.596Z,12.75
2023-02-14T03:29:06.538Z,12.52
2023-02-14T03:31:37.078Z,14.13
2023-02-14T03:34:19.393Z,14.77
2023-02-14T03:37:05.184Z,14.25
2023-02-14T03:39:32.571Z,14.20
2023-02-14T03:42:04.712Z,14.88
2023-02-14T03:44:34.395Z,12.05
2023-02-14T03:47:07.873Z,12.50
2023-02-14T03:49:37.239Z,11.52
2023-02-14T03:52:05.549Z,15.35
2023-02-14T03:54:33.672Z,12.52
2023-02-14T03:57:21.591Z,13.13
2023-02-14T03:59:49.055Z,13.68
2023-02-14T04:02:34.913Z,10.32
2023-02-14T04:05:04.917Z,11.73
2023-02-14T04:07:43.494Z,14.88
2023-02-14T04:10:11.024Z,12.05
2023-02-14T04:12:38.783Z,13.98
2023-02-14T04:15:06.423Z,14.38
2023-02-14T04:17:34.189Z,11.82
2023-02-14T04:20:01.537Z,10.80
2023-02-14T04:22:29.239Z,13.95
2023-02-14T04:24:56.631Z,13.15
2023-02-14T04:27:24.344Z,15.85
2023-02-14T04:29:51.730Z,13.05
2023-02-14T04:32:20.628Z,14.20
2023-02-14T04:34:48.562Z,13.38
2023-02-14T04:37:17.067Z,13.10
2023-02-14T04:39:44.408Z,18.02
2023-02-14T04:42:12.447Z,12.85
2023-02-14T04:44:39.922Z,12.60
2023-02-14T04:47:08.187Z,12.63
2023-02-14T04:49:35.650Z,14.95
2023-02-14T04:52:03.818Z,14.60
2023-02-14T04:54:31.262Z,16.08
2023-02-14T04:56:59.021Z,15.43
2023-02-14T04:59:26.400Z,17.23
2023-02-14T05:01:54.159Z,14.80
2023-02-14T05:04:21.610Z,15.35
2023-02-14T05:06:49.240Z,15.02
2023-02-14T05:09:16.658Z,12.73
2023-02-14T05:11:44.297Z,12.80
2023-02-14T05:14:11.791Z,15.90
2023-02-14T05:16:39.525Z,13.70
2023-02-14T05:19:06.963Z,12.45
2023-02-14T05:21:34.729Z,13.20
2023-02-14T05:24:02.298Z,13.32
2023-02-14T05:26:30.116Z,10.88
2023-02-14T05:28:57.775Z,13.88
2023-02-14T05:31:25.615Z,14.15
2023-02-14T05:33:53.051Z,15.30
2023-02-14T05:36:21.795Z,15.30
2023-02-14T05:38:49.123Z,13.88
2023-02-14T05:41:16.851Z,17.42
2023-02-14T05:43:44.410Z,15.80
2023-02-14T05:46:12.233Z,12.60
2023-02-14T05:48:40.510Z,13.68
2023-02-14T05:51:08.936Z,14.75
2023-02-14T05:53:36.500Z,16.27
2023-02-14T05:56:04.710Z,17.63
2023-02-14T05:58:32.251Z,13.60
2023-02-14T06:01:00.647Z,13.02
2023-02-14T06:03:28.346Z,14.95
2023-02-14T06:05:56.040Z,16.80
2023-02-14T06:08:23.499Z,14.05
2023-02-14T06:10:51.204Z,15.27
2023-02-14T06:13:18.566Z,15.95
2023-02-14T06:15:46.280Z,16.48
2023-02-14T06:18:13.681Z,18.90
2023-02-14T06:20:41.323Z,13.48
2023-02-14T06:23:08.728Z,16.45
2023-02-14T06:25:36.333Z,13.98
2023-02-14T06:28:03.744Z,14.68
2023-02-14T06:30:31.600Z,14.93
2023-02-14T06:32:59.148Z,19.83
2023-02-14T06:35:26.782Z,13.43
2023-02-14T06:37:54.147Z,20.52
2023-02-14T06:40:21.899Z,17.67
2023-02-14T06:42:49.304Z,26.98
2023-02-14T06:45:17.023Z,16.40
2023-02-14T06:47:45.275Z,26.02
2023-02-14T06:50:13.028Z,25.58
2023-02-14T06:52:40.430Z,17.70
2023-02-14T06:55:08.358Z,14.23
2023-02-14T06:57:35.729Z,15.82
2023-02-14T07:00:03.787Z,13.07
2023-02-14T07:06:03.315Z,14.80
2023-02-14T07:12:03.066Z,14.65
2023-02-14T07:14:30.720Z,16.42
2023-02-14T07:16:58.072Z,17.02
2023-02-14T07:19:25.795Z,15.63
2023-02-14T07:21:53.159Z,14.98
2023-02-14T07:24:21.013Z,14.18
2023-02-14T07:26:48.396Z,13.80
2023-02-14T07:29:16.129Z,14.73
2023-02-14T07:31:43.488Z,14.77
2023-02-14T07:34:11.511Z,15.25
2023-02-14T07:36:39.366Z,15.95
2023-02-14T07:39:06.990Z,16.00
2023-02-14T07:41:34.583Z,14.55
2023-02-14T07:44:02.261Z,18.30
2023-02-14T07:46:29.696Z,13.02
2023-02-14T07:48:57.509Z,15.20
2023-02-14T07:51:24.865Z,19.80
2023-02-14T07:53:52.621Z,14.98
2023-02-14T07:56:20.106Z,14.05
2023-02-14T07:58:47.963Z,12.35
2023-02-14T08:01:16.065Z,15.35
2023-02-14T08:03:43.820Z,13.38
2023-02-14T08:06:11.325Z,12.98
2023-02-14T08:08:38.997Z,15.27
2023-02-14T08:11:06.477Z,14.18
2023-02-14T08:13:34.154Z,18.75
2023-02-14T08:16:01.712Z,16.08
2023-02-14T08:18:29.429Z,16.20
2023-02-14T08:20:57.125Z,17.48
2023-02-14T08:23:24.947Z,21.17
2023-02-14T08:25:52.811Z,17.42
2023-02-14T08:28:23.630Z,19.35
2023-02-14T08:30:51.466Z,18.40
2023-02-14T08:33:19.621Z,16.05
2023-02-14T08:35:46.955Z,21.83
2023-02-14T08:38:14.795Z,13.82
2023-02-14T08:40:42.476Z,15.73
2023-02-14T08:43:10.216Z,14.35
2023-02-14T08:45:38.061Z,24.63
2023-02-14T08:48:07.205Z,15.70
2023-02-14T08:50:34.923Z,15.25
2023-02-14T08:53:06.271Z,14.32
2023-02-14T08:55:33.977Z,13.85
2023-02-14T08:58:01.931Z,12.93
2023-02-14T09:00:29.889Z,19.05
2023-02-14T09:02:57.687Z,13.88
2023-02-14T09:05:25.165Z,11.60
2023-02-14T09:07:52.917Z,13.38
2023-02-14T09:10:20.419Z,15.30
2023-02-14T09:12:48.057Z,16.58
2023-02-14T09:15:15.424Z,13.02
2023-02-14T09:17:43.162Z,15.25
2023-02-14T09:20:12.134Z,13.88
2023-02-14T09:22:39.809Z,17.10
2023-02-14T09:25:07.476Z,15.30
2023-02-14T09:27:35.454Z,15.43
2023-02-14T09:30:05.274Z,12.82
2023-02-14T09:32:33.031Z,11.57
2023-02-14T09:35:00.776Z,11.65
2023-02-14T09:37:28.533Z,12.30
2023-02-14T09:39:55.983Z,13.48
2023-02-14T09:42:42.302Z,12.13
2023-02-14T09:45:19.250Z,14.98
2023-02-14T09:47:57.539Z,12.68
2023-02-14T09:54:12.589Z,14.60
2023-02-14T09:56:54.365Z,13.52
2023-02-14T09:59:33.745Z,16.30
2023-02-14T10:02:16.856Z,13.63
2023-02-14T10:05:02.952Z,13.07
2023-02-14T10:07:42.624Z,11.85
2023-02-14T10:10:19.255Z,10.77
2023-02-14T10:12:59.375Z,11.52
2023-02-14T10:15:32.382Z,9.00
2023-02-14T10:18:07.912Z,13.48
2023-02-14T10:20:43.594Z,12.50
2023-02-14T10:23:29.902Z,12.20
2023-02-14T10:26:01.710Z,11.48
2023-02-14T10:28:34.505Z,13.10
2023-02-14T10:31:13.849Z,14.13
2023-02-14T10:33:44.121Z,8.98
2023-02-14T10:36:37.720Z,9.73
2023-02-14T10:39:05.389Z,8.38
2023-02-14T10:41:44.948Z,12.23
2023-02-14T10:44:18.576Z,12.20
2023-02-14T10:46:45.936Z,12.07
2023-02-14T10:49:37.583Z,22.75
2023-02-14T10:52:16.868Z,12.75
2023-02-14T10:54:46.454Z,12.07
2023-02-14T10:57:26.734Z,14.60
2023-02-14T10:59:57.524Z,13.15
2023-02-14T11:02:35.849Z,7.90
2023-02-14T11:05:04.551Z,10.85
2023-02-14T11:07:32.365Z,8.73
2023-02-14T11:10:00.882Z,11.10
2023-02-14T11:12:31.974Z,11.55
2023-02-14T11:15:09.907Z,12.00
2023-02-14T11:17:37.721Z,13.30
2023-02-14T11:20:22.927Z,13.00
2023-02-14T11:22:50.732Z,12.20
2023-02-14T11:25:22.896Z,11.80
2023-02-14T11:28:16.314Z,10.52
2023-02-14T11:30:45.348Z,16.55
2023-02-14T11:33:32.963Z,15.05
2023-02-14T11:36:02.053Z,22.23
2023-02-14T11:38:31.286Z,10.73
2023-02-14T11:40:59.588Z,10.88
2023-02-14T11:43:31.980Z,12.18
2023-02-14T11:46:08.610Z,9.65
2023-02-14T11:48:38.765Z,9.48
2023-02-14T11:51:11.565Z,8.65
2023-02-14T11:53:38.984Z,12.23
2023-02-14T11:56:06.830Z,8.63
2023-02-14T11:58:41.891Z,9.35
2023-02-14T12:01:12.473Z,8.82
2023-02-14T12:03:44.999Z,8.77
2023-02-14T12:06:13.535Z,13.68
2023-02-14T12:08:40.919Z,9.75
2023-02-14T12:11:22.498Z,12.70
2023-02-14T12:13:56.900Z,16.38
2023-02-14T12:16:35.274Z,11.63
2023-02-14T12:19:03.592Z,10.63
2023-02-14T12:21:53.099Z,18.05
2023-02-14T12:24:25.735Z,11.07
2023-02-14T12:27:05.271Z,10.38
2023-02-14T12:29:41.447Z,9.13
2023-02-14T12:32:16.597Z,9.07
2023-02-14T12:34:44.096Z,9.25
2023-02-14T12:37:14.626Z,14.85
2023-02-14T12:40:00.458Z,11.55
2023-02-14T12:42:34.155Z,11.20
2023-02-14T12:45:10.765Z,9.38
2023-02-14T12:47:57.122Z,9.20
2023-02-14T12:50:56.949Z,7.30
2023-02-14T12:53:27.603Z,8.77
2023-02-14T12:56:15.833Z,7.20
2023-02-14T12:58:43.502Z,10.18
2023-02-14T13:01:29.219Z,13.68
2023-02-14T13:04:24.425Z,10.80
2023-02-14T13:06:55.320Z,8.20
2023-02-14T13:09:32.180Z,8.73
2023-02-14T13:12:01.367Z,8.88
2023-02-14T13:14:40.909Z,7.72
2023-02-14T13:17:17.150Z,6.03
2023-02-14T13:19:52.744Z,9.93
2023-02-14T13:22:21.949Z,12.25
2023-02-14T13:24:51.760Z,12.20
2023-02-14T13:27:23.250Z,10.68
2023-02-14T13:29:52.559Z,10.15
2023-02-14T13:32:21.753Z,10.77
2023-02-14T13:34:50.012Z,9.20
2023-02-14T13:37:19.415Z,9.40
2023-02-14T13:40:08.116Z,12.63
2023-02-14T13:42:47.557Z,8.38
2023-02-14T13:45:30.585Z,7.90
2023-02-14T13:48:06.883Z,11.70
2023-02-14T13:50:39.406Z,7.82
2023-02-14T13:53:13.005Z,10.20
2023-02-14T13:55:44.425Z,10.52
2023-02-14T13:58:15.948Z,8.93
2023-02-14T14:00:47.281Z,8.55
2023-02-14T14:03:35.010Z,12.55
2023-02-14T14:06:03.167Z,10.13
2023-02-14T14:08:30.918Z,7.32
2023-02-14T14:11:00.149Z,12.48
2023-02-14T14:13:42.686Z,11.73
2023-02-14T14:16:25.409Z,9.40
2023-02-14T14:21:24.399Z,7.60
2023-02-14T14:24:10.446Z,9.90
2023-02-14T14:26:43.056Z,9.80
2023-02-14T14:31:38.238Z,10.55
2023-02-14T14:34:05.961Z,11.65
2023-02-14T14:36:33.673Z,11.43
2023-02-14T14:39:01.178Z,10.32
2023-02-14T14:41:29.694Z,9.70
2023-02-14T14:43:58.295Z,12.43
2023-02-14T14:46:25.923Z,11.50
2023-02-14T14:48:53.974Z,12.25
2023-02-14T14:51:26.668Z,11.23
2023-02-14T14:53:56.277Z,14.82
2023-02-14T14:56:25.376Z,21.55
2023-02-14T14:58:53.257Z,9.95
2023-02-14T15:01:29.818Z,12.70
2023-02-14T15:04:17.500Z,17.48
2023-02-14T15:06:45.743Z,14.18
2023-02-14T15:09:14.832Z,9.73
2023-02-14T15:11:43.966Z,10.05
2023-02-14T15:14:17.554Z,11.45
2023-02-14T15:16:49.787Z,13.18
2023-02-14T15:19:17.255Z,10.77
2023-02-14T15:21:45.974Z,8.57
2023-02-14T15:24:14.718Z,11.73
2023-02-14T15:26:43.149Z,8.70
2023-02-14T15:29:21.405Z,11.00
2023-02-14T15:31:49.680Z,10.02
2023-02-14T15:34:19.504Z,10.57
2023-02-14T15:36:47.274Z,12.77
2023-02-14T15:39:16.366Z,10.52
2023-02-14T15:41:44.615Z,12.68
2023-02-14T15:44:19.215Z,14.60
2023-02-14T15:46:47.188Z,13.25
2023-02-14T15:49:17.397Z,10.98
2023-02-14T15:51:47.329Z,11.30
2023-02-14T15:54:32.999Z,13.80
2023-02-14T15:57:01.455Z,13.75
2023-02-14T15:59:29.748Z,11.35
2023-02-14T16:01:59.873Z,10.00
2023-02-14T16:04:31.081Z,9.18
2023-02-14T16:07:06.980Z,12.48
2023-02-14T16:09:34.478Z,17.73
2023-02-14T16:12:22.383Z,12.55
2023-02-14T16:15:09.279Z,12.77
2023-02-14T16:17:36.993Z,17.90
2023-02-14T16:20:24.129Z,16.08
2023-02-14T16:22:52.023Z,12.20
2023-02-14T16:25:19.434Z,14.80
2023-02-14T16:27:47.106Z,11.23
2023-02-14T16:30:17.819Z,14.95
2023-02-14T16:32:49.535Z,11.32
2023-02-14T16:35:19.513Z,15.77
2023-02-14T16:37:47.876Z,14.82
2023-02-14T16:40:15.467Z,15.27
2023-02-14T16:42:43.305Z,14.77
2023-02-14T16:45:17.511Z,18.92
2023-02-14T16:47:48.609Z,15.40
2023-02-14T16:50:16.104Z,13.20
2023-02-14T16:52:46.070Z,20.45
2023-02-14T16:55:16.890Z,13.15
2023-02-14T16:57:46.309Z,11.13
2023-02-14T17:00:14.069Z,10.80
2023-02-14T17:02:44.071Z,10.93
2023-02-14T17:05:12.102Z,12.00
2023-02-14T17:07:41.966Z,8.60
2023-02-14T17:10:11.039Z,10.68
2023-02-14T17:12:41.318Z,13.05
2023-02-14T17:15:12.887Z,14.55
2023-02-14T17:17:42.954Z,14.20
2023-02-14T17:20:10.458Z,17.35
2023-02-14T17:22:38.331Z,15.40
2023-02-14T17:25:06.042Z,16.85
2023-02-14T17:27:33.772Z,14.60
2023-02-14T17:30:01.224Z,13.70
2023-02-14T17:32:29.066Z,13.40
2023-02-14T17:34:56.519Z,13.68
2023-02-14T17:37:24.254Z,11.40
2023-02-14T17:39:52.531Z,14.73
2023-02-14T17:42:20.198Z,17.27
2023-02-14T17:44:47.577Z,17.73
2023-02-14T17:47:19.866Z,18.50
2023-02-14T17:49:54.566Z,14.52
2023-02-14T17:52:28.059Z,14.10
2023-02-14T17:54:56.873Z,19.58
2023-02-14T18:00:23.025Z,18.00
2023-02-14T18:02:51.332Z,17.45
2023-02-14T18:05:18.880Z,15.55
2023-02-14T18:07:46.599Z,14.98
2023-02-14T18:10:13.976Z,15.85
2023-02-14T18:12:41.670Z,17.98
2023-02-14T18:15:09.270Z,17.52
2023-02-14T18:17:37.080Z,15.32
2023-02-14T18:20:04.978Z,14.88
2023-02-14T18:22:32.810Z,13.57
2023-02-14T18:25:00.378Z,18.42
2023-02-14T18:27:28.103Z,16.73
2023-02-14T18:29:55.626Z,16.88
2023-02-14T18:32:23.513Z,18.25
2023-02-14T18:34:50.931Z,21.17
2023-02-14T18:37:18.637Z,23.42
2023-02-14T18:39:45.987Z,21.77
2023-02-14T18:42:13.768Z,14.60
2023-02-14T18:44:41.218Z,15.18
2023-02-14T18:47:09.154Z,11.88
2023-02-14T18:49:36.539Z,16.17
2023-02-14T18:52:11.273Z,17.35
2023-02-14T18:54:38.669Z,16.00
2023-02-14T18:57:06.413Z,18.25
2023-02-14T18:59:34.252Z,16.67
2023-02-14T19:02:01.974Z,11.05
2023-02-14T19:04:29.407Z,12.10
2023-02-14T19:06:57.367Z,11.77
2023-02-14T19:09:24.724Z,18.95
2023-02-14T19:11:52.565Z,20.50
2023-02-14T19:14:19.925Z,18.83
2023-02-14T19:16:47.583Z,21.60
2023-02-14T19:19:15.171Z,14.63
2023-02-14T19:21:42.913Z,16.00
2023-02-14T19:24:10.494Z,11.48
2023-02-14T19:26:39.199Z,13.63
2023-02-14T19:29:08.314Z,14.80
2023-02-14T19:31:37.027Z,16.45
2023-02-14T19:34:05.522Z,23.83
2023-02-14T19:36:33.914Z,21.63
2023-02-14T19:39:01.737Z,18.38
2023-02-14T19:41:30.673Z,22.33
2023-02-14T19:43:58.891Z,20.35
2023-02-14T19:46:27.741Z,24.67
2023-02-14T19:52:27.530Z,26.58
2023-02-14T19:54:55.784Z,23.35
2023-02-14T19:57:23.571Z,24.17
2023-02-14T19:59:51.491Z,28.77
2023-02-14T20:02:19.303Z,25.98
2023-02-14T20:04:47.075Z,27.75
2023-02-14T20:07:14.658Z,27.48
2023-02-14T20:09:42.533Z,27.30
2023-02-14T20:12:10.107Z,26.75
2023-02-14T20:14:50.528Z,30.52
2023-02-14T20:17:19.081Z,34.33
2023-02-14T20:22:15.522Z,35.13
2023-02-14T20:28:26.498Z,28.20
2023-02-14T20:30:54.546Z,28.98
2023-02-14T20:38:18.742Z,26.02
2023-02-14T20:40:46.432Z,33.17
2023-02-14T20:43:13.933Z,27.17
2023-02-14T20:45:41.608Z,36.55
2023-02-14T20:48:08.994Z,31.50
2023-02-14T20:50:36.771Z,31.08
2023-02-14T20:53:04.145Z,28.60
2023-02-14T20:55:31.850Z,30.63
2023-02-14T20:57:59.384Z,33.67
2023-02-14T21:00:27.228Z,33.58
2023-02-14T21:02:54.565Z,33.22
2023-02-14T21:05:22.379Z,31.33
2023-02-14T21:07:49.749Z,35.38
2023-02-14T21:12:45.505Z,29.52
2023-02-14T21:15:13.157Z,34.83
2023-02-14T21:17:40.506Z,37.60
2023-02-14T21:20:08.241Z,33.80
2023-02-14T21:22:35.589Z,28.85
2023-02-14T21:25:04.298Z,37.13
2023-02-14T21:27:31.753Z,34.95
2023-02-14T21:29:59.519Z,36.85
2023-02-14T21:32:26.968Z,36.92
2023-02-14T21:34:54.833Z,34.10
2023-02-14T21:37:22.252Z,40.47
2023-02-14T21:42:17.966Z,39.25
2023-02-14T21:49:42.012Z,39.10
2023-02-14T21:52:09.396Z,34.65
2023-02-14T21:54:37.059Z,36.13
2023-02-14T21:59:32.714Z,38.80
2023-02-14T22:02:00.100Z,51.65
2023-02-14T22:04:30.052Z,40.42
2023-02-14T22:06:57.406Z,38.30
2023-02-14T22:09:25.045Z,36.60
2023-02-14T22:11:52.479Z,43.92
2023-02-14T22:14:20.273Z,41.38
2023-02-14T22:21:44.412Z,40.30
2023-02-14T22:24:12.273Z,41.40
2023-02-14T22:26:40.012Z,41.05
2023-02-14T22:29:09.425Z,43.60
2023-02-14T22:31:41.453Z,45.40
